sensor_id;sensor_type;location;lat;lon;timestamp;pressure;altitude;pressure_sealevel;temperature;humidity
83763;BME280;73753;53.724;0.040;2023-11-21T00:00:14;101500;;;9.5089;100.0
83763;BME280;73753;53.724;0.040;2023-11-21T00:01:16;101500;;;9.51935;100.0
83763;BME280;73753;53.724;0.040;2023-11-21T00:02:17;101500;;;9.5374;100.0
83763;BME280;73753;53.724;0.040;2023-11-21T00:03:19;101500;;;9.55166;100.0
83763;BME280;73753;53.724;0.040;2023-11-21T00:04:21;101500;;;9.54279;100.0
83763;BME280;73753;53.724;0.040;2023-11-21T00:05:22;101500;;;9.51491;100.0
83763;BME280;73753;53.724;0.040;2023-11-21T00:06:24;101500;;;9.52758;100.0
83763;BME280;73753;53.724;0.040;2023-11-21T00:07:25;101500;;;9.50795;100.0
83763;BME280;73753;53.724;0.040;2023-11-21T00:08:27;101500;;;9.48134;100.0
83763;BME280;73753;53.724;0.040;2023-11-21T00:09:29;101500;;;9.47215;100.0
83763;BME280;73753;53.724;0.040;2023-11-21T00:10:30;101500;;;9.44587;100.0
83763;BME280;73753;53.724;0.040;2023-11-21T00:11:32;101500;;;9.45252;100.0
83763;BME280;73753;53.724;0.040;2023-11-21T00:12:33;101500;;;9.43668;100.0
83763;BME280;73753;53.724;0.040;2023-11-21T00:13:35;101500;;;9.41863;100.0
83763;BME280;73753;53.724;0.040;2023-11-21T00:14:37;101500;;;9.42464;100.0
83763;BME280;73753;53.724;0.040;2023-11-21T00:15:38;101500;;;9.41324;100.0
83763;BME280;73753;53.724;0.040;2023-11-21T00:16:40;101500;;;9.37555;100.0
83763;BME280;73753;53.724;0.040;2023-11-21T00:17:41;101500;;;9.34039;100.0
83763;BME280;73753;53.724;0.040;2023-11-21T00:18:43;101500;;;9.32709;100.0
83763;BME280;73753;53.724;0.040;2023-11-21T00:19:44;101500;;;9.32487;100.0
83763;BME280;73753;53.724;0.040;2023-11-21T00:20:46;101500;;;9.32424;100.0
83763;BME280;73753;53.724;0.040;2023-11-21T00:21:47;101500;;;9.32107;100.0
83763;BME280;73753;53.724;0.040;2023-11-21T00:22:49;101500;;;9.31347;100.0
83763;BME280;73753;53.724;0.040;2023-11-21T00:23:50;101500;;;9.29193;100.0
83763;BME280;73753;53.724;0.040;2023-11-21T00:24:52;101500;;;9.28813;100.0
83763;BME280;73753;53.724;0.040;2023-11-21T00:25:53;101500;;;9.28465;100.0
83763;BME280;73753;53.724;0.040;2023-11-21T00:26:55;101500;;;9.26944;100.0
83763;BME280;73753;53.724;0.040;2023-11-21T00:27:56;101500;;;9.27483;100.0
83763;BME280;73753;53.724;0.040;2023-11-21T00:28:58;101500;;;9.26184;100.0
83763;BME280;73753;53.724;0.040;2023-11-21T00:29:59;101500;;;9.26121;100.0
83763;BME280;73753;53.724;0.040;2023-11-21T00:31:00;101500;;;9.26311;100.0
83763;BME280;73753;53.724;0.040;2023-11-21T00:32:02;101500;;;9.26279;100.0
83763;BME280;73753;53.724;0.040;2023-11-21T00:33:04;101500;;;9.27134;100.0
83763;BME280;73753;53.724;0.040;2023-11-21T00:34:05;101500;;;9.28338;100.0
83763;BME280;73753;53.724;0.040;2023-11-21T00:35:07;101500;;;9.29637;100.0
83763;BME280;73753;53.724;0.040;2023-11-21T00:36:09;101500;;;9.27895;100.0
83763;BME280;73753;53.724;0.040;2023-11-21T00:37:11;101500;;;9.27261;100.0
83763;BME280;73753;53.724;0.040;2023-11-21T00:38:12;101500;;;9.25709;100.0
83763;BME280;73753;53.724;0.040;2023-11-21T00:39:14;101500;;;9.26311;100.0
83763;BME280;73753;53.724;0.040;2023-11-21T00:40:15;101500;;;9.25297;100.0
83763;BME280;73753;53.724;0.040;2023-11-21T00:41:17;101500;;;9.24189;100.0
83763;BME280;73753;53.724;0.040;2023-11-21T00:42:18;101500;;;9.25804;100.0
83763;BME280;73753;53.724;0.040;2023-11-21T00:43:20;101500;;;9.25487;100.0
83763;BME280;73753;53.724;0.040;2023-11-21T00:44:21;101500;;;9.23745;100.0
83763;BME280;73753;53.724;0.040;2023-11-21T00:45:23;101500;;;9.23112;100.0
83763;BME280;73753;53.724;0.040;2023-11-21T00:46:24;101500;;;9.24917;100.0
83763;BME280;73753;53.724;0.040;2023-11-21T00:47:26;101500;;;9.2422;100.0
83763;BME280;73753;53.724;0.040;2023-11-21T00:48:27;101500;;;9.25709;100.0
83763;BME280;73753;53.724;0.040;2023-11-21T00:49:28;101500;;;9.24347;100.0
83763;BME280;73753;53.724;0.040;2023-11-21T00:50:30;101500;;;9.23967;100.0
83763;BME280;73753;53.724;0.040;2023-11-21T00:51:32;101500;;;9.23967;100.0
83763;BME280;73753;53.724;0.040;2023-11-21T00:52:33;101500;;;9.24505;100.0
83763;BME280;73753;53.724;0.040;2023-11-21T00:53:35;101500;;;9.23175;100.0
83763;BME280;73753;53.724;0.040;2023-11-21T00:54:36;101500;;;9.22193;100.0
83763;BME280;73753;53.724;0.040;2023-11-21T00:55:38;101500;;;9.19723;100.0
83763;BME280;73753;53.724;0.040;2023-11-21T00:56:39;101500;;;9.20229;100.0
83763;BME280;73753;53.724;0.040;2023-11-21T00:57:41;101500;;;9.17917;100.0
83763;BME280;73753;53.724;0.040;2023-11-21T00:58:42;101500;;;9.14275;100.0
83763;BME280;73753;53.724;0.040;2023-11-21T00:59:44;101500;;;9.15383;100.0
83763;BME280;73753;53.724;0.040;2023-11-21T01:00:45;101500;;;9.10696;100.0
83763;BME280;73753;53.724;0.040;2023-11-21T01:01:47;101500;;;9.10252;100.0
83763;BME280;73753;53.724;0.040;2023-11-21T01:02:48;101500;;;9.10094;100.0
83763;BME280;73753;53.724;0.040;2023-11-21T01:03:50;101500;;;9.07972;100.0
83763;BME280;73753;53.724;0.040;2023-11-21T01:04:51;101500;;;9.08479;100.0
83763;BME280;73753;53.724;0.040;2023-11-21T01:05:53;101500;;;9.09365;100.0
83763;BME280;73753;53.724;0.040;2023-11-21T01:06:55;101500;;;9.08827;100.0
83763;BME280;73753;53.724;0.040;2023-11-21T01:07:56;101500;;;9.09492;100.0
83763;BME280;73753;53.724;0.040;2023-11-21T01:08:58;101500;;;9.08162;100.0
83763;BME280;73753;53.724;0.040;2023-11-21T01:09:59;101500;;;9.09112;100.0
83763;BME280;73753;53.724;0.040;2023-11-21T01:11:01;101500;;;9.03126;100.0
83763;BME280;73753;53.724;0.040;2023-11-21T01:12:03;101600;;;8.93402;100.0
83763;BME280;73753;53.724;0.040;2023-11-21T01:13:04;101600;;;8.9033;100.0
83763;BME280;73753;53.724;0.040;2023-11-21T01:14:06;101600;;;8.88524;100.0
83763;BME280;73753;53.724;0.040;2023-11-21T01:15:07;101600;;;8.87986;100.0
83763;BME280;73753;53.724;0.040;2023-11-21T01:16:09;101600;;;8.88271;100.0
83763;BME280;73753;53.724;0.040;2023-11-21T01:17:10;101600;;;8.89474;100.0
83763;BME280;73753;53.724;0.040;2023-11-21T01:18:12;101600;;;8.89031;100.0
83763;BME280;73753;53.724;0.040;2023-11-21T01:19:13;101600;;;8.90045;100.0
83763;BME280;73753;53.724;0.040;2023-11-21T01:20:15;101600;;;8.88144;100.0
83763;BME280;73753;53.724;0.040;2023-11-21T01:21:16;101600;;;8.90076;100.0
83763;BME280;73753;53.724;0.040;2023-11-21T01:22:18;101600;;;8.88968;100.0
83763;BME280;73753;53.724;0.040;2023-11-21T01:23:19;101600;;;8.89506;100.0
83763;BME280;73753;53.724;0.040;2023-11-21T01:24:21;101600;;;8.88936;100.0
83763;BME280;73753;53.724;0.040;2023-11-21T01:25:22;101600;;;8.89316;100.0
83763;BME280;73753;53.724;0.040;2023-11-21T01:26:24;101600;;;8.87669;100.0
83763;BME280;73753;53.724;0.040;2023-11-21T01:27:25;101600;;;8.86402;100.0
83763;BME280;73753;53.724;0.040;2023-11-21T01:28:27;101600;;;8.8599;100.0
83763;BME280;73753;53.724;0.040;2023-11-21T01:29:28;101600;;;8.86655;100.0
83763;BME280;73753;53.724;0.040;2023-11-21T01:30:30;101600;;;8.88493;100.0
83763;BME280;73753;53.724;0.040;2023-11-21T01:31:32;101600;;;8.87162;100.0
83763;BME280;73753;53.724;0.040;2023-11-21T01:32:33;101600;;;8.87289;100.0
83763;BME280;73753;53.724;0.040;2023-11-21T01:33:34;101600;;;8.85959;100.0
83763;BME280;73753;53.724;0.040;2023-11-21T01:34:36;101600;;;8.85325;100.0
83763;BME280;73753;53.724;0.040;2023-11-21T01:35:38;101600;;;8.85515;100.0
83763;BME280;73753;53.724;0.040;2023-11-21T01:36:39;101600;;;8.85674;100.0
83763;BME280;73753;53.724;0.040;2023-11-21T01:37:40;101600;;;8.86434;100.0
83763;BME280;73753;53.724;0.040;2023-11-21T01:38:42;101600;;;8.85895;100.0
83763;BME280;73753;53.724;0.040;2023-11-21T01:39:43;101600;;;8.8447;100.0
83763;BME280;73753;53.724;0.040;2023-11-21T01:40:45;101600;;;8.83361;100.0
83763;BME280;73753;53.724;0.040;2023-11-21T01:41:46;101600;;;8.84185;100.0
83763;BME280;73753;53.724;0.040;2023-11-21T01:42:48;101600;;;8.81841;100.0
83763;BME280;73753;53.724;0.040;2023-11-21T01:43:49;101600;;;8.79466;100.0
83763;BME280;73753;53.724;0.040;2023-11-21T01:44:51;101600;;;8.81366;100.0
83763;BME280;73753;53.724;0.040;2023-11-21T01:45:52;101600;;;8.81619;100.0
83763;BME280;73753;53.724;0.040;2023-11-21T01:46:55;101600;;;8.81429;100.0
83763;BME280;73753;53.724;0.040;2023-11-21T01:47:57;101600;;;8.81651;100.0
83763;BME280;73753;53.724;0.040;2023-11-21T01:48:58;101600;;;8.83425;100.0
83763;BME280;73753;53.724;0.040;2023-11-21T01:50:01;101600;;;8.85103;100.0
83763;BME280;73753;53.724;0.040;2023-11-21T01:51:03;101600;;;8.84407;100.0
83763;BME280;73753;53.724;0.040;2023-11-21T01:52:05;101600;;;8.84818;100.0
83763;BME280;73753;53.724;0.040;2023-11-21T01:53:07;101600;;;8.87257;100.0
83763;BME280;73753;53.724;0.040;2023-11-21T01:54:08;101600;;;8.88049;100.0
83763;BME280;73753;53.724;0.040;2023-11-21T01:55:10;101600;;;8.89094;100.0
83763;BME280;73753;53.724;0.040;2023-11-21T01:56:12;101600;;;8.89759;100.0
83763;BME280;73753;53.724;0.040;2023-11-21T01:57:14;101600;;;8.91185;100.0
83763;BME280;73753;53.724;0.040;2023-11-21T01:58:16;101600;;;8.90013;100.0
83763;BME280;73753;53.724;0.040;2023-11-21T01:59:20;101600;;;8.90615;100.0
83763;BME280;73753;53.724;0.040;2023-11-21T02:00:22;101600;;;8.91248;100.0
83763;BME280;73753;53.724;0.040;2023-11-21T02:01:24;101600;;;8.91312;100.0
83763;BME280;73753;53.724;0.040;2023-11-21T02:02:25;101600;;;8.91026;100.0
83763;BME280;73753;53.724;0.040;2023-11-21T02:03:27;101600;;;8.92357;100.0
83763;BME280;73753;53.724;0.040;2023-11-21T02:04:28;101600;;;8.9223;100.0
83763;BME280;73753;53.724;0.040;2023-11-21T02:05:30;101600;;;8.93212;100.0
83763;BME280;73753;53.724;0.040;2023-11-21T02:06:31;101600;;;8.92072;100.0
83763;BME280;73753;53.724;0.040;2023-11-21T02:07:33;101600;;;8.90805;100.0
83763;BME280;73753;53.724;0.040;2023-11-21T02:08:34;101600;;;8.90931;100.0
83763;BME280;73753;53.724;0.040;2023-11-21T02:09:36;101600;;;8.92864;100.0
83763;BME280;73753;53.724;0.040;2023-11-21T02:10:37;101600;;;8.92452;100.0
83763;BME280;73753;53.724;0.040;2023-11-21T02:11:39;101600;;;8.94289;100.0
83763;BME280;73753;53.724;0.040;2023-11-21T02:12:40;101600;;;8.94922;100.0
83763;BME280;73753;53.724;0.040;2023-11-21T02:13:42;101600;;;8.96189;100.0
83763;BME280;73753;53.724;0.040;2023-11-21T02:14:44;101600;;;8.95429;100.0
83763;BME280;73753;53.724;0.040;2023-11-21T02:15:45;101600;;;8.96411;100.0
83763;BME280;73753;53.724;0.040;2023-11-21T02:16:47;101600;;;8.94352;100.0
83763;BME280;73753;53.724;0.040;2023-11-21T02:17:48;101600;;;8.95968;100.0
83763;BME280;73753;53.724;0.040;2023-11-21T02:18:50;101600;;;8.97108;100.0
83763;BME280;73753;53.724;0.040;2023-11-21T02:19:52;101600;;;8.9847;100.0
83763;BME280;73753;53.724;0.040;2023-11-21T02:20:55;101600;;;8.97741;100.0
83763;BME280;73753;53.724;0.040;2023-11-21T02:21:57;101600;;;8.99642;100.0
83763;BME280;73753;53.724;0.040;2023-11-21T02:22:58;101600;;;9.00053;100.0
83763;BME280;73753;53.724;0.040;2023-11-21T02:24:00;101600;;;9.00053;100.0
83763;BME280;73753;53.724;0.040;2023-11-21T02:25:01;101600;;;9.01289;100.0
83763;BME280;73753;53.724;0.040;2023-11-21T02:26:03;101600;;;9.0189;100.0
83763;BME280;73753;53.724;0.040;2023-11-21T02:27:05;101600;;;9.01384;100.0
83763;BME280;73753;53.724;0.040;2023-11-21T02:28:06;101600;;;9.00719;100.0
83763;BME280;73753;53.724;0.040;2023-11-21T02:29:07;101600;;;9.01732;100.0
83763;BME280;73753;53.724;0.040;2023-11-21T02:30:09;101600;;;9.01162;100.0
83763;BME280;73753;53.724;0.040;2023-11-21T02:31:11;101600;;;9.02112;100.0
83763;BME280;73753;53.724;0.040;2023-11-21T02:32:13;101600;;;9.02461;100.0
83763;BME280;73753;53.724;0.040;2023-11-21T02:33:15;101600;;;9.02176;100.0
83763;BME280;73753;53.724;0.040;2023-11-21T02:34:17;101600;;;9.04646;100.0
83763;BME280;73753;53.724;0.040;2023-11-21T02:35:19;101600;;;9.03506;100.0
83763;BME280;73753;53.724;0.040;2023-11-21T02:36:21;101600;;;9.02112;100.0
83763;BME280;73753;53.724;0.040;2023-11-21T02:37:23;101600;;;8.9847;100.0
83763;BME280;73753;53.724;0.040;2023-11-21T02:38:24;101600;;;8.98565;100.0
83763;BME280;73753;53.724;0.040;2023-11-21T02:39:26;101600;;;8.99832;100.0
83763;BME280;73753;53.724;0.040;2023-11-21T02:40:27;101600;;;9.00845;100.0
83763;BME280;73753;53.724;0.040;2023-11-21T02:41:28;101600;;;9.00655;100.0
83763;BME280;73753;53.724;0.040;2023-11-21T02:42:30;101600;;;8.9961;100.0
83763;BME280;73753;53.724;0.040;2023-11-21T02:43:32;101600;;;8.98786;100.0
83763;BME280;73753;53.724;0.040;2023-11-21T02:44:33;101600;;;8.97931;100.0
83763;BME280;73753;53.724;0.040;2023-11-21T02:45:35;101600;;;8.98311;100.0
83763;BME280;73753;53.724;0.040;2023-11-21T02:46:36;101600;;;8.98881;100.0
83763;BME280;73753;53.724;0.040;2023-11-21T02:47:38;101600;;;8.99103;100.0
83763;BME280;73753;53.724;0.040;2023-11-21T02:48:39;101600;;;8.98691;100.0
83763;BME280;73753;53.724;0.040;2023-11-21T02:49:41;101600;;;8.97995;100.0
83763;BME280;73753;53.724;0.040;2023-11-21T02:50:43;101600;;;8.979;100.0
83763;BME280;73753;53.724;0.040;2023-11-21T02:51:45;101600;;;8.99578;100.0
83763;BME280;73753;53.724;0.040;2023-11-21T02:52:46;101600;;;9.01859;100.0
83763;BME280;73753;53.724;0.040;2023-11-21T02:53:48;101600;;;9.00338;100.0
83763;BME280;73753;53.724;0.040;2023-11-21T02:54:49;101600;;;8.9847;100.0
83763;BME280;73753;53.724;0.040;2023-11-21T02:55:51;101600;;;8.99388;100.0
83763;BME280;73753;53.724;0.040;2023-11-21T02:56:52;101600;;;8.99515;100.0
83763;BME280;73753;53.724;0.040;2023-11-21T02:57:54;101700;;;9.02651;100.0
83763;BME280;73753;53.724;0.040;2023-11-21T02:58:55;101700;;;8.99895;100.0
83763;BME280;73753;53.724;0.040;2023-11-21T02:59:57;101700;;;8.97361;100.0
83763;BME280;73753;53.724;0.040;2023-11-21T03:00:58;101700;;;9.00687;100.0
83763;BME280;73753;53.724;0.040;2023-11-21T03:02:00;101700;;;9.02999;100.0
83763;BME280;73753;53.724;0.040;2023-11-21T03:03:01;101700;;;9.05628;100.0
83763;BME280;73753;53.724;0.040;2023-11-21T03:04:03;101700;;;9.05343;100.0
83763;BME280;73753;53.724;0.040;2023-11-21T03:05:05;101700;;;9.02239;100.0
83763;BME280;73753;53.724;0.040;2023-11-21T03:06:07;101700;;;9.04868;100.0
83763;BME280;73753;53.724;0.040;2023-11-21T03:07:09;101700;;;9.01384;100.0
83763;BME280;73753;53.724;0.040;2023-11-21T03:08:10;101700;;;9.017;100.0
83763;BME280;73753;53.724;0.040;2023-11-21T03:09:12;101700;;;9.05533;100.0
83763;BME280;73753;53.724;0.040;2023-11-21T03:10:13;101700;;;9.03601;100.0
83763;BME280;73753;53.724;0.040;2023-11-21T03:11:15;101700;;;9.0018;100.0
83763;BME280;73753;53.724;0.040;2023-11-21T03:12:16;101700;;;9.00909;100.0
83763;BME280;73753;53.724;0.040;2023-11-21T03:13:18;101700;;;9.04899;100.0
83763;BME280;73753;53.724;0.040;2023-11-21T03:14:19;101700;;;9.05343;100.0
83763;BME280;73753;53.724;0.040;2023-11-21T03:15:21;101700;;;9.06166;100.0
83763;BME280;73753;53.724;0.040;2023-11-21T03:16:22;101700;;;9.05723;100.0
83763;BME280;73753;53.724;0.040;2023-11-21T03:17:24;101700;;;9.07528;100.0
83763;BME280;73753;53.724;0.040;2023-11-21T03:18:25;101700;;;9.10411;100.0
83763;BME280;73753;53.724;0.040;2023-11-21T03:19:27;101700;;;9.08447;100.0
83763;BME280;73753;53.724;0.040;2023-11-21T03:20:28;101700;;;9.08827;100.0
83763;BME280;73753;53.724;0.040;2023-11-21T03:21:30;101700;;;9.08859;100.0
83763;BME280;73753;53.724;0.040;2023-11-21T03:22:31;101700;;;9.10284;100.0
83763;BME280;73753;53.724;0.040;2023-11-21T03:23:33;101700;;;9.08289;100.0
83763;BME280;73753;53.724;0.040;2023-11-21T03:24:34;101700;;;9.10379;100.0
83763;BME280;73753;53.724;0.040;2023-11-21T03:25:36;101700;;;9.10854;100.0
83763;BME280;73753;53.724;0.040;2023-11-21T03:26:38;101700;;;9.09777;100.0
83763;BME280;73753;53.724;0.040;2023-11-21T03:27:39;101700;;;9.09397;100.0
83763;BME280;73753;53.724;0.040;2023-11-21T03:28:41;101700;;;9.09239;100.0
83763;BME280;73753;53.724;0.040;2023-11-21T03:29:42;101700;;;9.09714;100.0
83763;BME280;73753;53.724;0.040;2023-11-21T03:30:44;101700;;;9.0794;100.0
83763;BME280;73753;53.724;0.040;2023-11-21T03:31:45;101700;;;9.0927;100.0
83763;BME280;73753;53.724;0.040;2023-11-21T03:32:47;101700;;;9.09904;100.0
83763;BME280;73753;53.724;0.040;2023-11-21T03:33:48;101700;;;9.12406;100.0
83763;BME280;73753;53.724;0.040;2023-11-21T03:34:58;101700;;;9.13926;100.0
83763;BME280;73753;53.724;0.040;2023-11-21T03:36:00;101700;;;9.11361;100.0
83763;BME280;73753;53.724;0.040;2023-11-21T03:37:01;101700;;;9.10759;100.0
83763;BME280;73753;53.724;0.040;2023-11-21T03:38:03;101700;;;9.09904;100.0
83763;BME280;73753;53.724;0.040;2023-11-21T03:39:04;101700;;;9.10569;100.0
83763;BME280;73753;53.724;0.040;2023-11-21T03:40:06;101700;;;9.0604;100.0
83763;BME280;73753;53.724;0.040;2023-11-21T03:41:08;101700;;;9.06768;100.0
83763;BME280;73753;53.724;0.040;2023-11-21T03:42:09;101700;;;9.07053;100.0
83763;BME280;73753;53.724;0.040;2023-11-21T03:43:11;101700;;;9.03316;100.0
83763;BME280;73753;53.724;0.040;2023-11-21T03:44:13;101700;;;9.03696;100.0
83763;BME280;73753;53.724;0.040;2023-11-21T03:45:14;101700;;;9.02176;100.0
83763;BME280;73753;53.724;0.040;2023-11-21T03:46:16;101700;;;9.00624;100.0
83763;BME280;73753;53.724;0.040;2023-11-21T03:47:18;101700;;;9.00275;100.0
83763;BME280;73753;53.724;0.040;2023-11-21T03:48:19;101700;;;9.04329;100.0
83763;BME280;73753;53.724;0.040;2023-11-21T03:49:20;101700;;;9.03823;100.0
83763;BME280;73753;53.724;0.040;2023-11-21T03:50:22;101700;;;9.07085;100.0
83763;BME280;73753;53.724;0.040;2023-11-21T03:51:23;101700;;;9.10031;100.0
83763;BME280;73753;53.724;0.040;2023-11-21T03:52:25;101700;;;9.12723;100.0
83763;BME280;73753;53.724;0.040;2023-11-21T03:53:26;101700;;;9.11931;100.0
83763;BME280;73753;53.724;0.040;2023-11-21T03:54:28;101700;;;9.11804;100.0
83763;BME280;73753;53.724;0.040;2023-11-21T03:55:30;101700;;;9.13673;100.0
83763;BME280;73753;53.724;0.040;2023-11-21T03:56:32;101700;;;9.11583;100.0
83763;BME280;73753;53.724;0.040;2023-11-21T03:57:34;101700;;;9.16809;100.0
83763;BME280;73753;53.724;0.040;2023-11-21T03:58:35;101700;;;9.21623;100.0
83763;BME280;73753;53.724;0.040;2023-11-21T03:59:39;101700;;;9.23492;100.0
83763;BME280;73753;53.724;0.040;2023-11-21T04:00:41;101700;;;9.28021;100.0
83763;BME280;73753;53.724;0.040;2023-11-21T04:01:42;101700;;;9.26311;100.0
83763;BME280;73753;53.724;0.040;2023-11-21T04:02:44;101700;;;9.23302;100.0
83763;BME280;73753;53.724;0.040;2023-11-21T04:03:46;101700;;;9.18899;100.0
83763;BME280;73753;53.724;0.040;2023-11-21T04:04:47;101700;;;9.18519;100.0
83763;BME280;73753;53.724;0.040;2023-11-21T04:05:49;101700;;;9.18139;100.0
83763;BME280;73753;53.724;0.040;2023-11-21T04:06:51;101700;;;9.15732;100.0
83763;BME280;73753;53.724;0.040;2023-11-21T04:07:52;101700;;;9.208;100.0
83763;BME280;73753;53.724;0.040;2023-11-21T04:08:54;101700;;;9.17632;100.0
83763;BME280;73753;53.724;0.040;2023-11-21T04:09:55;101700;;;9.20736;100.0
83763;BME280;73753;53.724;0.040;2023-11-21T04:10:57;101700;;;9.21655;100.0
83763;BME280;73753;53.724;0.040;2023-11-21T04:11:58;101700;;;9.22795;100.0
83763;BME280;73753;53.724;0.040;2023-11-21T04:13:00;101700;;;9.25076;100.0
83763;BME280;73753;53.724;0.040;2023-11-21T04:14:01;101700;;;9.26247;100.0
83763;BME280;73753;53.724;0.040;2023-11-21T04:15:03;101800;;;9.26311;100.0
83763;BME280;73753;53.724;0.040;2023-11-21T04:16:05;101800;;;9.25994;100.0
83763;BME280;73753;53.724;0.040;2023-11-21T04:17:06;101800;;;9.24632;100.0
83763;BME280;73753;53.724;0.040;2023-11-21T04:18:08;101700;;;9.22415;100.0
83763;BME280;73753;53.724;0.040;2023-11-21T04:19:10;101800;;;9.23809;100.0
83763;BME280;73753;53.724;0.040;2023-11-21T04:20:11;101800;;;9.21908;100.0
83763;BME280;73753;53.724;0.040;2023-11-21T04:21:13;101800;;;9.22542;100.0
83763;BME280;73753;53.724;0.040;2023-11-21T04:22:14;101800;;;9.20895;100.0
83763;BME280;73753;53.724;0.040;2023-11-21T04:23:16;101800;;;9.21877;100.0
83763;BME280;73753;53.724;0.040;2023-11-21T04:24:17;101800;;;9.21275;100.0
83763;BME280;73753;53.724;0.040;2023-11-21T04:25:19;101800;;;9.19659;100.0
83763;BME280;73753;53.724;0.040;2023-11-21T04:26:20;101800;;;9.19438;100.0
83763;BME280;73753;53.724;0.040;2023-11-21T04:27:22;101800;;;9.19849;100.0
83763;BME280;73753;53.724;0.040;2023-11-21T04:28:23;101800;;;9.208;100.0
83763;BME280;73753;53.724;0.040;2023-11-21T04:29:25;101800;;;9.19881;100.0
83763;BME280;73753;53.724;0.040;2023-11-21T04:30:26;101800;;;9.20325;100.0
83763;BME280;73753;53.724;0.040;2023-11-21T04:31:28;101800;;;9.19564;100.0
83763;BME280;73753;53.724;0.040;2023-11-21T04:32:29;101800;;;9.20103;100.0
83763;BME280;73753;53.724;0.040;2023-11-21T04:33:31;101800;;;9.2289;100.0
83763;BME280;73753;53.724;0.040;2023-11-21T04:34:32;101800;;;9.24917;100.0
83763;BME280;73753;53.724;0.040;2023-11-21T04:35:34;101800;;;9.25234;100.0
83763;BME280;73753;53.724;0.040;2023-11-21T04:36:35;101800;;;9.23714;100.0
83763;BME280;73753;53.724;0.040;2023-11-21T04:37:36;101800;;;9.22478;100.0
83763;BME280;73753;53.724;0.040;2023-11-21T04:38:38;101800;;;9.25487;100.0
83763;BME280;73753;53.724;0.040;2023-11-21T04:39:39;101800;;;9.27641;100.0
83763;BME280;73753;53.724;0.040;2023-11-21T04:40:41;101800;;;9.27578;100.0
83763;BME280;73753;53.724;0.040;2023-11-21T04:41:42;101800;;;9.22605;100.0
83763;BME280;73753;53.724;0.040;2023-11-21T04:42:44;101800;;;9.19881;100.0
83763;BME280;73753;53.724;0.040;2023-11-21T04:43:45;101800;;;9.21085;100.0
83763;BME280;73753;53.724;0.040;2023-11-21T04:44:47;101800;;;9.20325;100.0
83763;BME280;73753;53.724;0.040;2023-11-21T04:45:49;101800;;;9.19216;100.0
83763;BME280;73753;53.724;0.040;2023-11-21T04:46:50;101800;;;9.16619;100.0
83763;BME280;73753;53.724;0.040;2023-11-21T04:47:51;101800;;;9.17189;100.0
83763;BME280;73753;53.724;0.040;2023-11-21T04:48:53;101800;;;9.19469;100.0
83763;BME280;73753;53.724;0.040;2023-11-21T04:49:55;101800;;;9.18171;100.0
83763;BME280;73753;53.724;0.040;2023-11-21T04:50:56;101800;;;9.19184;100.0
83763;BME280;73753;53.724;0.040;2023-11-21T04:51:58;101800;;;9.18646;100.0
83763;BME280;73753;53.724;0.040;2023-11-21T04:52:59;101800;;;9.20546;100.0
83763;BME280;73753;53.724;0.040;2023-11-21T04:54:01;101800;;;9.22288;100.0
83763;BME280;73753;53.724;0.040;2023-11-21T04:55:02;101800;;;9.23935;100.0
83763;BME280;73753;53.724;0.040;2023-11-21T04:56:04;101800;;;9.27324;100.0
83763;BME280;73753;53.724;0.040;2023-11-21T04:57:06;101800;;;9.29668;100.0
83763;BME280;73753;53.724;0.040;2023-11-21T04:58:08;101800;;;9.30618;100.0
83763;BME280;73753;53.724;0.040;2023-11-21T04:59:10;101800;;;9.3198;100.0
83763;BME280;73753;53.724;0.040;2023-11-21T05:00:12;101800;;;9.32994;100.0
83763;BME280;73753;53.724;0.040;2023-11-21T05:01:13;101800;;;9.3236;100.0
83763;BME280;73753;53.724;0.040;2023-11-21T05:02:15;101800;;;9.35528;100.0
83763;BME280;73753;53.724;0.040;2023-11-21T05:03:16;101800;;;9.34894;100.0
83763;BME280;73753;53.724;0.040;2023-11-21T05:04:18;101800;;;9.32772;100.0
83763;BME280;73753;53.724;0.040;2023-11-21T05:05:19;101800;;;9.3784;100.0
83763;BME280;73753;53.724;0.040;2023-11-21T05:06:21;101800;;;9.37428;100.0
83763;BME280;73753;53.724;0.040;2023-11-21T05:07:22;101800;;;9.38252;100.0
83763;BME280;73753;53.724;0.040;2023-11-21T05:08:24;101800;;;9.37365;100.0
83763;BME280;73753;53.724;0.040;2023-11-21T05:09:25;101800;;;9.41926;100.0
83763;BME280;73753;53.724;0.040;2023-11-21T05:10:27;101800;;;9.45885;100.0
83763;BME280;73753;53.724;0.040;2023-11-21T05:11:28;101800;;;9.437;100.0
83763;BME280;73753;53.724;0.040;2023-11-21T05:12:30;101800;;;9.47406;100.0
83763;BME280;73753;53.724;0.040;2023-11-21T05:13:33;101800;;;9.47881;100.0
83763;BME280;73753;53.724;0.040;2023-11-21T05:14:35;101800;;;9.51808;100.0
83763;BME280;73753;53.724;0.040;2023-11-21T05:15:36;101800;;;9.49844;100.0
83763;BME280;73753;53.724;0.040;2023-11-21T05:16:38;101800;;;9.50795;100.0
83763;BME280;73753;53.724;0.040;2023-11-21T05:17:39;101800;;;9.51396;100.0
83763;BME280;73753;53.724;0.040;2023-11-21T05:18:41;101800;;;9.5089;100.0
83763;BME280;73753;53.724;0.040;2023-11-21T05:19:42;101800;;;9.50415;100.0
83763;BME280;73753;53.724;0.040;2023-11-21T05:20:44;101900;;;9.50034;100.0
83763;BME280;73753;53.724;0.040;2023-11-21T05:21:45;101900;;;9.53328;100.0
83763;BME280;73753;53.724;0.040;2023-11-21T05:22:47;101900;;;9.5051;100.0
83763;BME280;73753;53.724;0.040;2023-11-21T05:23:48;101900;;;9.52125;100.0
83763;BME280;73753;53.724;0.040;2023-11-21T05:24:50;101900;;;9.50003;100.0
83763;BME280;73753;53.724;0.040;2023-11-21T05:25:51;101900;;;9.50098;100.0
83763;BME280;73753;53.724;0.040;2023-11-21T05:26:53;101900;;;9.50351;100.0